createdAt,value
2022-10-11T00:00:51.140Z,100353.41
2022-10-11T00:03:34.167Z,100356.50
2022-10-11T00:06:17.425Z,100347.66
2022-10-11T00:09:01.154Z,100340.63
2022-10-11T00:11:44.383Z,100345.16
2022-10-11T00:14:29.103Z,100349.03
2022-10-11T00:17:12.314Z,100340.94
2022-10-11T00:19:55.343Z,100339.59
2022-10-11T00:22:38.665Z,100332.81
2022-10-11T00:25:21.534Z,100332.81
2022-10-11T00:28:04.472Z,100331.31
2022-10-11T00:30:49.215Z,100331.31
2022-10-11T00:33:33.765Z,100327.28
2022-10-11T00:36:19.254Z,100324.75
2022-10-11T00:39:03.001Z,100325.44
2022-10-11T00:41:49.441Z,100320.41
2022-10-11T00:44:34.889Z,100318.75
2022-10-11T00:47:20.289Z,100318.06
2022-10-11T00:50:04.098Z,100310.00
2022-10-11T00:52:55.013Z,100322.41
2022-10-11T00:55:55.790Z,100322.41
2022-10-11T00:58:57.174Z,100319.03
2022-10-11T01:01:41.185Z,100318.06
2022-10-11T01:04:23.585Z,100312.94
2022-10-11T01:07:05.280Z,100315.03
2022-10-11T01:09:47.902Z,100321.28
2022-10-11T01:12:32.657Z,100324.53
2022-10-11T01:15:22.127Z,100316.75
2022-10-11T01:18:14.499Z,100315.09
2022-10-11T01:21:06.956Z,100309.38
2022-10-11T01:24:16.384Z,100317.72
2022-10-11T01:27:19.113Z,100316.34
2022-10-11T01:30:20.746Z,100317.38
2022-10-11T01:33:13.606Z,100310.63
2022-10-11T01:36:06.045Z,100311.72
2022-10-11T01:38:54.682Z,100317.47
2022-10-11T01:41:41.709Z,100315.47
2022-10-11T01:44:27.060Z,100317.88
2022-10-11T01:47:08.977Z,100313.81
2022-10-11T01:49:57.428Z,100309.94
2022-10-11T01:52:44.592Z,100301.88
2022-10-11T01:55:40.835Z,100311.00
2022-10-11T01:58:38.139Z,100308.09
2022-10-11T02:01:34.678Z,100317.63
2022-10-11T02:04:26.927Z,100312.13
2022-10-11T02:07:19.815Z,100307.00
2022-10-11T02:10:09.400Z,100309.50
2022-10-11T02:12:57.940Z,100310.59
2022-10-11T02:15:44.380Z,100304.56
2022-10-11T02:18:54.123Z,100307.97
2022-10-11T02:21:40.325Z,100311.28
2022-10-11T02:24:27.372Z,100313.09
2022-10-11T02:27:09.546Z,100325.66
2022-10-11T02:34:38.147Z,100328.66
2022-10-11T02:37:27.455Z,100328.00
2022-10-11T02:45:00.903Z,100322.94
2022-10-11T02:47:44.710Z,100325.09
2022-10-11T02:50:26.414Z,100325.88
2022-10-11T02:53:19.993Z,100329.38
2022-10-11T02:56:01.615Z,100331.47
2022-10-11T02:59:12.773Z,100324.28
2022-10-11T03:01:57.239Z,100328.66
2022-10-11T03:04:43.092Z,100331.13
2022-10-11T03:07:43.593Z,100324.53
2022-10-11T03:10:26.676Z,100325.81
2022-10-11T03:13:12.891Z,100326.84
2022-10-11T03:16:03.140Z,100321.28
2022-10-11T03:18:49.520Z,100323.16
2022-10-11T03:21:32.934Z,100320.59
2022-10-11T03:24:15.243Z,100310.44
2022-10-11T03:26:58.958Z,100317.41
2022-10-11T03:29:53.849Z,100319.59
2022-10-11T03:32:36.222Z,100320.19
2022-10-11T03:35:31.593Z,100319.34
2022-10-11T03:38:16.250Z,100311.25
2022-10-11T03:40:59.665Z,100309.94
2022-10-11T03:43:46.921Z,100309.53
2022-10-11T03:47:04.789Z,100306.97
2022-10-11T03:49:51.862Z,100304.41
2022-10-11T03:52:35.228Z,100301.00
2022-10-11T03:55:19.391Z,100303.75
2022-10-11T04:02:06.719Z,100305.06
2022-10-11T04:13:21.009Z,100298.91
2022-10-11T04:16:08.678Z,100304.47
2022-10-11T04:19:15.704Z,100298.69
2022-10-11T04:21:59.283Z,100298.00
2022-10-11T04:24:41.938Z,100297.59
2022-10-11T04:27:28.120Z,100293.78
2022-10-11T04:30:30.346Z,100301.72
2022-10-11T04:33:26.682Z,100309.28
2022-10-11T04:36:21.578Z,100302.22
2022-10-11T04:39:19.811Z,100293.94
2022-10-11T04:42:02.063Z,100298.97
2022-10-11T04:44:52.059Z,100304.53
2022-10-11T04:47:36.670Z,100300.75
2022-10-11T04:50:25.048Z,100297.56
2022-10-11T04:53:40.551Z,100297.50
2022-10-11T04:56:38.371Z,100287.44
2022-10-11T04:59:26.454Z,100297.44
2022-10-11T05:02:14.452Z,100294.00
2022-10-11T05:05:29.251Z,100301.03
2022-10-11T05:08:14.136Z,100300.88
2022-10-11T05:11:03.723Z,100295.94
2022-10-11T05:13:52.277Z,100300.44
2022-10-11T05:16:40.757Z,100289.81
2022-10-11T05:19:54.672Z,100299.03
2022-10-11T05:22:46.847Z,100298.34
2022-10-11T05:25:44.409Z,100289.91
2022-10-11T05:28:52.206Z,100294.13
2022-10-11T05:31:51.600Z,100285.47
2022-10-11T05:34:42.964Z,100276.53
2022-10-11T05:37:38.978Z,100282.69
2022-10-11T05:40:26.097Z,100275.75
2022-10-11T05:43:17.752Z,100270.69
2022-10-11T05:46:06.480Z,100268.34
2022-10-11T05:48:57.377Z,100262.97
2022-10-11T05:53:29.612Z,100261.69
2022-10-11T05:56:22.189Z,100262.31
2022-10-11T05:59:08.714Z,100255.78
2022-10-11T06:01:55.715Z,100256.75
2022-10-11T06:04:42.976Z,100256.03
2022-10-11T06:07:38.960Z,100249.34
2022-10-11T06:10:32.720Z,100251.13
2022-10-11T06:13:47.241Z,100248.72
2022-10-11T06:17:06.818Z,100249.81
2022-10-11T06:20:26.868Z,100246.44
2022-10-11T06:23:46.242Z,100249.59
2022-10-11T06:26:47.895Z,100244.59
2022-10-11T06:29:59.068Z,100244.19
2022-10-11T06:34:20.117Z,100244.69
2022-10-11T06:37:38.055Z,100247.00
2022-10-11T06:41:01.822Z,100235.75
2022-10-11T06:45:27.701Z,100242.25
2022-10-11T07:01:55.106Z,100231.25
2022-10-11T07:09:45.536Z,100233.88
2022-10-11T07:43:33.292Z,100206.97
2022-10-11T07:46:33.893Z,100217.53
2022-10-11T07:49:54.627Z,100209.88
2022-10-11T07:53:44.699Z,100202.84
2022-10-11T08:08:25.166Z,100199.16
2022-10-11T08:11:54.618Z,100195.13
2022-10-11T08:25:26.167Z,100185.06
2022-10-11T08:29:17.328Z,100187.03
2022-10-11T08:32:28.920Z,100176.25
2022-10-11T08:35:20.682Z,100182.09
2022-10-11T08:38:39.460Z,100168.13
2022-10-11T10:10:33.658Z,100077.91
2022-10-11T10:13:22.744Z,100072.78
2022-10-11T10:16:00.055Z,100069.81
2022-10-11T10:18:36.450Z,100065.38
2022-10-11T10:21:14.023Z,100063.94
2022-10-11T10:23:58.861Z,100065.47
2022-10-11T10:30:21.522Z,100067.19
2022-10-11T10:32:57.927Z,100062.72
2022-10-11T10:35:34.338Z,100058.28
2022-10-11T10:38:30.663Z,100063.25
2022-10-11T10:41:04.607Z,100051.19
2022-10-11T10:43:41.440Z,100053.59
2022-10-11T10:46:46.005Z,100051.25
2022-10-11T10:52:56.150Z,100044.13
2022-10-11T10:55:35.657Z,100030.28
2022-10-11T10:58:23.042Z,100033.91
2022-10-11T11:01:00.403Z,100028.13
2022-10-11T11:03:39.430Z,100029.94
2022-10-11T11:06:14.699Z,100026.78
2022-10-11T11:09:05.450Z,100028.38
2022-10-11T11:11:52.382Z,100024.22
2022-10-11T11:19:07.314Z,100003.19
2022-10-11T11:21:52.353Z,100006.09
2022-10-11T11:24:47.525Z,100009.22
2022-10-11T11:27:37.345Z,100008.19
2022-10-11T11:30:13.650Z,100000.41
2022-10-11T11:32:58.244Z,100003.19
2022-10-11T11:35:35.199Z,100002.19
2022-10-11T11:38:41.935Z,100000.13
2022-10-11T11:41:19.336Z,99999.00
2022-10-11T11:47:16.366Z,99981.72
2022-10-11T11:50:02.268Z,99988.53
2022-10-11T11:52:47.266Z,99976.91
2022-10-11T11:55:24.759Z,99982.75
2022-10-11T11:58:07.273Z,99978.84
2022-10-11T12:00:55.011Z,99979.06
2022-10-11T12:03:30.572Z,99973.16
2022-10-11T12:06:23.753Z,99970.06
2022-10-11T12:09:04.174Z,99966.94
2022-10-11T12:11:50.078Z,99969.72
2022-10-11T12:14:41.164Z,99962.38
2022-10-11T12:17:18.685Z,99956.22
2022-10-11T12:20:11.882Z,99967.38
2022-10-11T12:22:54.094Z,99950.91
2022-10-11T12:25:44.443Z,99945.03
2022-10-11T12:29:01.357Z,99952.09
2022-10-11T12:31:36.218Z,99949.63
2022-10-11T12:34:33.673Z,99942.63
2022-10-11T12:37:50.736Z,99942.50
2022-10-11T12:40:44.083Z,99933.88
2022-10-11T12:43:54.282Z,99936.50
2022-10-11T12:46:58.099Z,99936.13
2022-10-11T12:49:59.659Z,99933.00
2022-10-11T12:52:42.021Z,99930.78
2022-10-11T12:55:34.893Z,99940.06
2022-10-11T12:58:38.585Z,99928.34
2022-10-11T13:01:24.041Z,99929.13
2022-10-11T13:04:01.769Z,99932.59
2022-10-11T13:06:35.256Z,99919.72
2022-10-11T13:09:19.099Z,99919.69
2022-10-11T13:12:02.330Z,99922.72
2022-10-11T13:14:39.788Z,99914.88
2022-10-11T13:17:24.179Z,99919.94
2022-10-11T13:20:02.186Z,99920.97
2022-10-11T13:22:37.124Z,99913.53
2022-10-11T13:25:18.252Z,99910.94
2022-10-11T13:27:49.865Z,99917.66
2022-10-11T13:30:29.654Z,99917.13
2022-10-11T13:33:00.729Z,99904.22
2022-10-11T13:35:34.106Z,99914.19
2022-10-11T13:38:06.283Z,99910.91
2022-10-11T13:40:52.567Z,99912.72
2022-10-11T13:43:47.691Z,99904.22
2022-10-11T13:46:47.627Z,99909.31
2022-10-11T13:53:37.235Z,99915.09
2022-10-11T14:00:07.244Z,99914.78
2022-10-11T14:02:51.997Z,99908.31
2022-10-11T14:05:34.248Z,99911.28
2022-10-11T14:13:55.568Z,99911.75
2022-10-11T14:16:31.469Z,99904.13
2022-10-11T14:19:12.033Z,99900.63
2022-10-11T14:21:52.794Z,99907.16
2022-10-11T14:24:35.717Z,99911.00
2022-10-11T14:27:28.211Z,99898.53
2022-10-11T14:33:10.391Z,99902.31
2022-10-11T14:35:57.331Z,99908.66
2022-10-11T14:39:10.157Z,99913.75
2022-10-11T14:41:50.887Z,99910.56
2022-10-11T14:44:27.869Z,99915.03
2022-10-11T14:47:08.638Z,99915.81
2022-10-11T14:50:00.261Z,99914.47
2022-10-11T14:53:28.532Z,99920.00
2022-10-11T14:56:08.753Z,99922.44
2022-10-11T15:03:42.209Z,99933.06
2022-10-11T15:06:27.236Z,99931.06
2022-10-11T15:10:18.795Z,99933.06
2022-10-11T15:12:55.929Z,99936.53
2022-10-11T15:15:30.952Z,99932.50
2022-10-11T15:19:03.701Z,99943.22
2022-10-11T15:22:06.244Z,99939.31
2022-10-11T15:24:37.227Z,99940.53
2022-10-11T15:27:08.988Z,99940.22
2022-10-11T15:29:43.614Z,99938.41
2022-10-11T15:32:14.286Z,99935.81
2022-10-11T15:34:45.112Z,99938.09
2022-10-11T15:37:17.520Z,99934.28
2022-10-11T15:40:23.845Z,99933.84
2022-10-11T15:42:56.530Z,99941.19
2022-10-11T15:45:29.200Z,99942.75
2022-10-11T15:49:33.302Z,99939.47
2022-10-11T15:52:39.395Z,99933.63
2022-10-11T15:55:10.887Z,99934.59
2022-10-11T15:57:46.203Z,99935.81
2022-10-11T16:00:21.363Z,99927.84
2022-10-11T16:02:55.575Z,99940.81
2022-10-11T16:05:28.535Z,99935.56
2022-10-11T16:07:58.530Z,99945.00
2022-10-11T16:10:29.179Z,99940.19
2022-10-11T16:13:00.621Z,99944.81
2022-10-11T16:15:33.802Z,99939.75
2022-10-11T16:18:19.951Z,99942.53
2022-10-11T16:21:00.991Z,99946.69
2022-10-11T16:23:39.046Z,99947.19
2022-10-11T16:26:23.112Z,99949.09
2022-10-11T16:28:54.303Z,99941.81
2022-10-11T16:31:24.835Z,99945.78
2022-10-11T16:34:01.783Z,99937.91
2022-10-11T16:36:58.099Z,99932.31
2022-10-11T16:39:52.648Z,99939.72
2022-10-11T16:43:39.204Z,99935.06
2022-10-11T16:47:19.281Z,99933.84
2022-10-11T16:51:23.381Z,99934.81
2022-10-11T16:58:11.844Z,99920.28
2022-10-11T17:00:46.161Z,99921.25
2022-10-11T17:03:32.507Z,99926.75
2022-10-11T17:11:51.116Z,99921.78
2022-10-11T17:14:22.822Z,99922.88
2022-10-11T17:17:01.545Z,99910.66
2022-10-11T17:19:52.734Z,99912.06
2022-10-11T17:22:32.460Z,99916.19
2022-10-11T17:25:06.497Z,99904.63
2022-10-11T17:27:41.680Z,99898.59
2022-10-11T17:30:27.842Z,99911.00
2022-10-11T17:33:03.770Z,99912.00
2022-10-11T17:35:50.191Z,99914.69
2022-10-11T17:38:47.123Z,99907.91
2022-10-11T17:41:32.121Z,99907.53
2022-10-11T17:44:08.436Z,99904.03
2022-10-11T17:46:43.945Z,99897.47
2022-10-11T17:49:19.374Z,99909.78
2022-10-11T17:51:53.792Z,99904.31
2022-10-11T17:54:27.266Z,99904.25
2022-10-11T17:57:14.172Z,99898.16
2022-10-11T17:59:55.350Z,99894.69
2022-10-11T18:02:32.192Z,99899.19
2022-10-11T18:05:07.163Z,99902.91
2022-10-11T18:07:39.472Z,99897.25
2022-10-11T18:10:24.181Z,99906.91
2022-10-11T18:13:12.033Z,99901.25
2022-10-11T18:16:00.887Z,99900.28
2022-10-11T18:18:36.360Z,99891.59
2022-10-11T18:21:06.914Z,99881.88
2022-10-11T18:23:38.482Z,99884.00
2022-10-11T18:26:29.519Z,99884.25
2022-10-11T18:29:05.894Z,99881.03
2022-10-11T18:39:15.381Z,99892.34
2022-10-11T18:49:46.732Z,99888.81
2022-10-11T18:52:21.208Z,99891.09
2022-10-11T18:54:54.135Z,99888.16
2022-10-11T18:57:26.977Z,99895.34
2022-10-11T19:00:22.500Z,99882.78
2022-10-11T19:03:04.892Z,99879.94
2022-10-11T19:05:48.472Z,99876.56
2022-10-11T19:08:51.482Z,99865.16
2022-10-11T19:23:03.846Z,99860.69
2022-10-11T19:25:39.085Z,99872.47
2022-10-11T19:28:28.056Z,99864.56
2022-10-11T19:31:20.786Z,99863.03
2022-10-11T19:38:35.443Z,99853.19
2022-10-11T19:41:17.118Z,99854.09
2022-10-11T19:44:25.194Z,99850.38
2022-10-11T19:47:05.067Z,99849.69
2022-10-11T19:49:40.746Z,99838.34
2022-10-11T19:52:27.241Z,99850.78
2022-10-11T19:56:08.483Z,99840.47
2022-10-11T19:59:00.814Z,99859.69
2022-10-11T20:07:52.620Z,99851.38
2022-10-11T21:09:11.346Z,99836.25
2022-10-11T21:12:06.186Z,99842.13
2022-10-11T22:40:58.101Z,99812.63
2022-10-11T22:44:04.889Z,99802.81
2022-10-11T22:55:46.530Z,99809.28
2022-10-11T23:03:14.278Z,99802.84
2022-10-11T23:06:39.174Z,99801.19
2022-10-11T23:10:49.227Z,99800.91
2022-10-11T23:14:58.815Z,99803.88
2022-10-11T23:18:58.543Z,99802.09
2022-10-11T23:23:58.472Z,99802.81
2022-10-11T23:27:38.360Z,99791.47
2022-10-11T23:31:26.979Z,99803.72
2022-10-11T23:34:26.160Z,99802.06
2022-10-11T23:37:40.914Z,99801.66
2022-10-11T23:40:25.854Z,99790.78
2022-10-11T23:43:11.552Z,99794.56
2022-10-11T23:46:02.030Z,99797.28
2022-10-11T23:49:43.393Z,99791.25
2022-10-11T23:52:40.249Z,99795.00
2022-10-11T23:55:29.633Z,99800.19
2022-10-11T23:58:13.212Z,99789.75
